createdAt,value
2023-08-21T00:00:55.974Z,93.34
2023-08-21T00:01:55.988Z,92.03
2023-08-21T00:02:56.176Z,94.05
2023-08-21T00:03:56.125Z,91.36
2023-08-21T00:04:56.151Z,90.86
2023-08-21T00:05:56.178Z,91.74
2023-08-21T00:06:56.203Z,91.15
2023-08-21T00:07:56.233Z,89.63
2023-08-21T00:08:56.289Z,91.11
2023-08-21T00:09:56.290Z,91.34
2023-08-21T00:10:56.363Z,91.81
2023-08-21T00:11:56.370Z,94.55
2023-08-21T00:12:56.407Z,92.69
2023-08-21T00:13:56.473Z,92.27
2023-08-21T00:14:56.505Z,93.66
2023-08-21T00:15:56.598Z,90.64
2023-08-21T00:16:56.699Z,96.58
2023-08-21T00:17:56.724Z,93.09
2023-08-21T00:18:56.753Z,92.68
2023-08-21T00:19:56.815Z,91.30
2023-08-21T00:20:56.854Z,98.10
2023-08-21T00:21:56.923Z,91.87
2023-08-21T00:22:56.984Z,91.63
2023-08-21T00:23:57.021Z,94.23
2023-08-21T00:24:57.079Z,91.92
2023-08-21T00:25:57.082Z,94.53
2023-08-21T00:26:57.132Z,93.33
2023-08-21T00:27:57.161Z,90.85
2023-08-21T00:28:57.201Z,94.01
2023-08-21T00:29:57.237Z,96.54
2023-08-21T00:30:57.292Z,94.66
2023-08-21T00:31:57.317Z,91.59
2023-08-21T00:32:57.425Z,93.51
2023-08-21T00:33:57.424Z,94.44
2023-08-21T00:34:57.445Z,98.15
2023-08-21T00:35:57.546Z,92.71
2023-08-21T00:36:57.525Z,91.15
2023-08-21T00:37:57.570Z,95.43
2023-08-21T00:38:57.629Z,94.04
2023-08-21T00:39:57.688Z,94.25
2023-08-21T00:40:57.740Z,93.54
2023-08-21T00:41:57.775Z,94.73
2023-08-21T00:42:57.836Z,93.96
2023-08-21T00:43:57.862Z,95.70
2023-08-21T00:44:57.925Z,92.95
2023-08-21T00:45:58.014Z,96.55
2023-08-21T00:46:58.029Z,93.84
2023-08-21T00:47:58.139Z,95.36
2023-08-21T00:48:58.108Z,95.35
2023-08-21T00:49:58.159Z,95.84
2023-08-21T00:50:58.204Z,96.23
2023-08-21T00:51:58.268Z,94.19
2023-08-21T00:52:58.308Z,92.97
2023-08-21T00:53:58.316Z,94.38
2023-08-21T00:54:58.354Z,93.21
2023-08-21T00:55:58.439Z,97.73
2023-08-21T00:56:58.483Z,94.04
2023-08-21T00:57:58.512Z,94.92
2023-08-21T00:58:58.554Z,92.43
2023-08-21T00:59:58.600Z,93.85
2023-08-21T01:00:59.499Z,92.97
2023-08-21T01:01:58.709Z,93.47
2023-08-21T01:02:58.818Z,92.75
2023-08-21T01:03:58.755Z,96.48
2023-08-21T01:04:58.824Z,94.59
2023-08-21T01:05:58.846Z,95.71
2023-08-21T01:06:58.908Z,97.05
2023-08-21T01:07:58.931Z,93.05
2023-08-21T01:08:58.983Z,94.87
2023-08-21T01:09:59.018Z,95.44
2023-08-21T01:10:59.097Z,95.72
2023-08-21T01:11:59.146Z,95.53
2023-08-21T01:12:59.172Z,94.89
2023-08-21T01:13:59.174Z,96.35
2023-08-21T01:14:59.213Z,97.96
2023-08-21T01:15:59.226Z,92.78
2023-08-21T01:16:59.503Z,93.25
2023-08-21T01:17:59.542Z,96.64
2023-08-21T01:18:59.255Z,96.89
2023-08-21T01:19:59.280Z,95.01
2023-08-21T01:20:59.351Z,95.17
2023-08-21T01:21:59.321Z,94.39
2023-08-21T01:22:59.367Z,98.46
2023-08-21T01:23:59.382Z,95.38
2023-08-21T01:24:59.388Z,96.95
2023-08-21T01:25:59.412Z,98.21
2023-08-21T01:26:59.439Z,94.19
2023-08-21T01:27:59.477Z,97.08
2023-08-21T01:28:59.498Z,95.55
2023-08-21T01:29:59.546Z,97.92
2023-08-21T01:30:59.574Z,99.19
2023-08-21T01:31:59.719Z,95.00
2023-08-21T01:32:59.633Z,96.14
2023-08-21T01:33:59.630Z,96.93
2023-08-21T01:34:59.649Z,96.42
2023-08-21T01:35:59.673Z,96.10
2023-08-21T01:36:59.706Z,98.76
2023-08-21T01:37:59.737Z,97.68
2023-08-21T01:38:59.771Z,97.70
2023-08-21T01:39:59.806Z,93.85
2023-08-21T01:40:59.820Z,97.80
2023-08-21T01:41:59.848Z,97.41
2023-08-21T01:42:59.876Z,100.34
2023-08-21T01:43:59.914Z,95.56
2023-08-21T01:44:59.941Z,97.68
2023-08-21T01:46:00.011Z,96.76
2023-08-21T01:47:00.039Z,95.90
2023-08-21T01:48:00.113Z,99.13
2023-08-21T01:49:00.057Z,97.36
2023-08-21T01:50:00.086Z,96.22
2023-08-21T01:51:00.067Z,99.88
2023-08-21T01:52:00.151Z,95.51
2023-08-21T01:53:00.103Z,95.94
2023-08-21T01:54:00.120Z,98.41
2023-08-21T01:55:00.197Z,98.49
2023-08-21T01:56:00.143Z,96.81
2023-08-21T01:57:00.142Z,97.96
2023-08-21T01:58:00.155Z,95.97
2023-08-21T01:59:00.168Z,94.77
2023-08-21T02:00:00.271Z,98.37
2023-08-21T02:01:00.252Z,96.10
2023-08-21T02:02:00.236Z,96.92
2023-08-21T02:03:00.429Z,99.97
2023-08-21T02:04:00.273Z,96.93
2023-08-21T02:05:00.292Z,94.89
2023-08-21T02:06:00.290Z,97.95
2023-08-21T02:07:00.279Z,95.91
2023-08-21T02:08:00.386Z,98.28
2023-08-21T02:09:00.299Z,98.21
2023-08-21T02:10:00.299Z,96.35
2023-08-21T02:11:00.284Z,100.10
2023-08-21T02:12:00.297Z,100.84
2023-08-21T02:13:00.298Z,94.90
2023-08-21T02:14:00.301Z,97.74
2023-08-21T02:15:00.296Z,97.32
2023-08-21T02:16:00.308Z,98.16
2023-08-21T02:17:00.312Z,94.28
2023-08-21T02:18:00.441Z,98.41
2023-08-21T02:19:00.405Z,99.53
2023-08-21T02:20:00.422Z,97.05
2023-08-21T02:21:00.464Z,97.67
2023-08-21T02:22:00.488Z,98.54
2023-08-21T02:23:00.534Z,98.54
2023-08-21T02:24:00.555Z,94.31
2023-08-21T02:25:00.597Z,100.52
2023-08-21T02:26:00.635Z,98.84
2023-08-21T02:27:00.680Z,98.38
2023-08-21T02:28:00.726Z,95.92
2023-08-21T02:29:00.778Z,96.46
2023-08-21T02:30:00.817Z,101.43
2023-08-21T02:31:00.894Z,98.21
2023-08-21T02:32:00.912Z,95.69
2023-08-21T02:33:01.003Z,97.15
2023-08-21T02:34:00.997Z,99.58
2023-08-21T02:35:01.025Z,97.82
2023-08-21T02:36:01.056Z,104.68
2023-08-21T02:37:01.096Z,99.27
2023-08-21T02:38:01.139Z,97.22
2023-08-21T02:39:01.195Z,96.75
2023-08-21T02:40:01.238Z,99.92
2023-08-21T02:41:01.277Z,95.59
2023-08-21T02:42:01.295Z,94.36
2023-08-21T02:43:01.314Z,96.83
2023-08-21T02:44:01.336Z,96.76
2023-08-21T02:45:01.381Z,98.62
2023-08-21T02:46:01.382Z,99.86
2023-08-21T02:47:01.364Z,98.87
2023-08-21T02:48:01.417Z,97.53
2023-08-21T02:49:01.355Z,98.98
2023-08-21T02:50:01.368Z,99.36
2023-08-21T02:51:02.483Z,99.55
2023-08-21T02:52:01.363Z,100.83
2023-08-21T02:53:01.362Z,98.80
2023-08-21T02:54:01.350Z,97.51
2023-08-21T02:55:01.334Z,99.74
2023-08-21T02:56:01.343Z,100.17
2023-08-21T02:57:01.336Z,102.04
2023-08-21T02:58:01.338Z,100.81
2023-08-21T02:59:01.309Z,101.66
2023-08-21T03:00:01.327Z,99.26
2023-08-21T03:01:01.367Z,99.35
2023-08-21T03:02:01.354Z,99.32
2023-08-21T03:03:01.315Z,93.94
2023-08-21T03:04:01.287Z,100.05
2023-08-21T03:05:01.274Z,102.53
2023-08-21T03:06:01.277Z,98.10
2023-08-21T03:07:01.266Z,99.01
2023-08-21T03:08:01.266Z,98.55
2023-08-21T03:09:01.279Z,101.14
2023-08-21T03:10:01.243Z,101.77
2023-08-21T03:11:01.267Z,100.63
2023-08-21T03:12:01.235Z,98.96
2023-08-21T03:13:01.234Z,100.90
2023-08-21T03:14:01.232Z,98.67
2023-08-21T03:15:01.230Z,101.94
2023-08-21T03:16:01.230Z,99.83
2023-08-21T03:17:01.199Z,99.65
2023-08-21T03:18:01.253Z,97.29
2023-08-21T03:19:01.189Z,100.19
2023-08-21T03:20:01.236Z,101.77
2023-08-21T03:21:01.184Z,99.74
2023-08-21T03:22:01.174Z,99.53
2023-08-21T03:23:01.184Z,98.90
2023-08-21T03:24:03.170Z,98.29
2023-08-21T03:25:01.192Z,98.71
2023-08-21T03:26:01.154Z,99.52
2023-08-21T03:27:01.148Z,99.45
2023-08-21T03:28:01.135Z,97.65
2023-08-21T03:29:01.141Z,100.18
2023-08-21T03:30:01.151Z,99.76
2023-08-21T03:31:01.174Z,100.27
2023-08-21T03:32:01.112Z,99.14
2023-08-21T03:33:01.173Z,101.18
2023-08-21T03:34:01.108Z,99.22
2023-08-21T03:35:01.096Z,97.41
2023-08-21T03:36:01.081Z,99.01
2023-08-21T03:37:01.092Z,94.37
2023-08-21T03:38:01.095Z,97.78
2023-08-21T03:39:01.065Z,97.43
2023-08-21T03:40:01.061Z,99.64
2023-08-21T03:41:01.067Z,100.60
2023-08-21T03:42:01.051Z,101.79
2023-08-21T03:43:01.045Z,100.22
2023-08-21T03:44:01.031Z,100.49
2023-08-21T03:45:01.064Z,101.71
2023-08-21T03:46:01.057Z,99.00
2023-08-21T03:47:01.010Z,94.77
2023-08-21T03:48:01.049Z,101.10
2023-08-21T03:49:01.004Z,98.44
2023-08-21T03:50:01.005Z,99.00
2023-08-21T03:51:01.003Z,100.34
2023-08-21T03:52:00.974Z,98.54
2023-08-21T03:53:00.982Z,99.88
2023-08-21T03:54:00.972Z,96.66
2023-08-21T03:55:00.983Z,98.39
2023-08-21T03:56:00.950Z,97.81
2023-08-21T03:57:00.947Z,96.96
2023-08-21T03:58:00.948Z,100.08
2023-08-21T03:59:00.935Z,98.01
2023-08-21T04:00:00.949Z,100.80
2023-08-21T04:01:00.931Z,97.89
2023-08-21T04:02:00.913Z,95.33
2023-08-21T04:03:00.962Z,100.75
2023-08-21T04:04:00.952Z,98.73
2023-08-21T04:05:00.949Z,100.45
2023-08-21T04:06:00.897Z,97.10
2023-08-21T04:07:00.892Z,95.55
2023-08-21T04:08:00.873Z,97.59
2023-08-21T04:09:00.867Z,100.28
2023-08-21T04:10:00.860Z,95.22
2023-08-21T04:11:00.858Z,97.04
2023-08-21T04:12:00.866Z,99.24
2023-08-21T04:13:02.497Z,98.22
2023-08-21T04:14:00.845Z,98.48
2023-08-21T04:15:00.889Z,98.71
2023-08-21T04:16:00.968Z,99.07
2023-08-21T04:17:00.826Z,100.46
2023-08-21T04:18:00.896Z,101.32
2023-08-21T04:19:00.817Z,95.28
2023-08-21T04:20:00.842Z,100.16
2023-08-21T04:21:00.824Z,96.01
2023-08-21T04:22:00.809Z,101.73
2023-08-21T04:23:00.800Z,99.95
2023-08-21T04:24:00.795Z,98.16
2023-08-21T04:25:00.782Z,96.64
2023-08-21T04:26:00.781Z,97.58
2023-08-21T04:27:00.787Z,93.58
2023-08-21T04:28:00.761Z,99.69
2023-08-21T04:29:00.768Z,96.63
2023-08-21T04:30:00.783Z,99.44
2023-08-21T04:31:00.783Z,96.99
2023-08-21T04:32:00.805Z,96.44
2023-08-21T04:33:00.818Z,93.21
2023-08-21T04:34:00.754Z,96.28
2023-08-21T04:35:00.727Z,97.04
2023-08-21T04:36:00.728Z,96.96
2023-08-21T04:37:00.721Z,96.40
2023-08-21T04:38:00.723Z,96.62
2023-08-21T04:39:00.715Z,94.69
2023-08-21T04:40:00.698Z,96.33
2023-08-21T04:41:00.704Z,98.02
2023-08-21T04:42:00.683Z,97.36
2023-08-21T04:43:00.696Z,94.07
2023-08-21T04:44:00.674Z,95.07
2023-08-21T04:45:00.668Z,95.59
2023-08-21T04:46:00.729Z,92.14
2023-08-21T04:47:00.664Z,95.42
2023-08-21T04:48:00.684Z,92.85
2023-08-21T04:49:00.639Z,93.87
2023-08-21T04:50:00.642Z,95.80
2023-08-21T04:51:00.638Z,96.92
2023-08-21T04:52:00.616Z,93.57
2023-08-21T04:53:00.623Z,93.93
2023-08-21T04:54:00.612Z,91.41
2023-08-21T04:55:00.597Z,94.00
2023-08-21T04:56:00.600Z,96.51
2023-08-21T04:57:00.601Z,94.05
2023-08-21T04:58:00.596Z,94.70
2023-08-21T04:59:00.572Z,95.00
2023-08-21T05:00:00.625Z,89.82
2023-08-21T05:01:00.627Z,95.23
2023-08-21T05:02:00.565Z,94.27
2023-08-21T05:03:00.641Z,94.14
2023-08-21T05:04:00.569Z,93.98
2023-08-21T05:05:00.538Z,91.11
2023-08-21T05:06:00.534Z,93.40
2023-08-21T05:07:00.564Z,92.39
2023-08-21T05:08:00.524Z,92.49
2023-08-21T05:09:00.522Z,94.57
2023-08-21T05:10:00.536Z,89.83
2023-08-21T05:11:00.522Z,92.52
2023-08-21T05:12:00.507Z,92.76
2023-08-21T05:13:00.486Z,90.89
2023-08-21T05:14:02.777Z,88.80
2023-08-21T05:15:00.603Z,89.22
2023-08-21T05:16:00.707Z,89.50
2023-08-21T05:17:00.709Z,89.14
2023-08-21T05:18:00.785Z,91.20
2023-08-21T05:19:00.798Z,95.22
2023-08-21T05:20:00.803Z,94.45
2023-08-21T05:21:00.800Z,92.35
2023-08-21T05:22:00.791Z,93.70
2023-08-21T05:23:00.781Z,90.58
2023-08-21T05:24:00.817Z,90.91
2023-08-21T05:25:00.777Z,93.73
2023-08-21T05:26:00.794Z,88.07
2023-08-21T05:27:01.724Z,91.66
2023-08-21T05:28:00.774Z,90.01
2023-08-21T05:29:00.783Z,91.55
2023-08-21T05:30:00.768Z,87.56
2023-08-21T05:31:00.801Z,92.70
2023-08-21T05:32:00.783Z,91.02
2023-08-21T05:33:00.801Z,91.95
2023-08-21T05:34:00.746Z,89.52
2023-08-21T05:35:00.759Z,93.54
2023-08-21T05:36:00.746Z,91.39
2023-08-21T05:37:00.742Z,89.79
2023-08-21T05:38:00.745Z,91.04
2023-08-21T05:39:00.734Z,89.04
2023-08-21T05:40:00.729Z,88.77
2023-08-21T05:41:00.728Z,89.86
2023-08-21T05:42:00.749Z,88.35
2023-08-21T05:43:00.739Z,89.35
2023-08-21T05:44:00.729Z,85.44
2023-08-21T05:45:00.716Z,87.23
2023-08-21T05:46:00.743Z,90.04
2023-08-21T05:47:00.764Z,90.65
2023-08-21T05:48:00.807Z,86.33
2023-08-21T05:49:00.734Z,88.66
2023-08-21T05:50:00.724Z,89.10
2023-08-21T05:51:00.714Z,89.49
2023-08-21T05:52:00.741Z,87.32
2023-08-21T05:53:00.741Z,86.41
2023-08-21T05:54:00.747Z,90.76
2023-08-21T05:55:00.734Z,87.52
2023-08-21T05:56:00.731Z,88.13
2023-08-21T05:57:00.794Z,89.02
2023-08-21T05:58:00.732Z,87.82
2023-08-21T05:59:00.721Z,87.46
2023-08-21T06:00:00.716Z,86.69
2023-08-21T06:01:00.772Z,86.62
2023-08-21T06:02:00.772Z,87.76
2023-08-21T06:03:00.744Z,90.33
2023-08-21T06:04:01.584Z,86.05
2023-08-21T06:05:00.704Z,83.72
2023-08-21T06:06:00.702Z,87.77
2023-08-21T06:07:00.693Z,85.25
2023-08-21T06:08:00.711Z,84.33
2023-08-21T06:09:00.680Z,86.35
2023-08-21T06:10:00.681Z,84.91
2023-08-21T06:11:00.679Z,85.21
2023-08-21T06:12:00.672Z,85.94
2023-08-21T06:13:00.705Z,88.55
2023-08-21T06:14:00.674Z,87.34
2023-08-21T06:15:00.654Z,87.18
2023-08-21T06:16:00.654Z,88.12
2023-08-21T06:17:00.742Z,84.95
2023-08-21T06:18:00.705Z,85.37
2023-08-21T06:19:00.686Z,83.02
2023-08-21T06:20:00.694Z,85.17
2023-08-21T06:21:00.680Z,83.49
2023-08-21T06:22:00.676Z,82.65
2023-08-21T06:23:00.700Z,82.94
2023-08-21T06:24:00.687Z,86.44
2023-08-21T06:25:00.737Z,83.76
2023-08-21T06:26:00.712Z,82.07
2023-08-21T06:27:00.746Z,83.41
2023-08-21T06:28:00.751Z,86.46
2023-08-21T06:29:00.753Z,82.18
2023-08-21T06:30:00.779Z,84.10
2023-08-21T06:31:00.832Z,81.69
2023-08-21T06:32:00.766Z,80.97
2023-08-21T06:33:00.824Z,82.39
2023-08-21T06:34:00.751Z,83.63
2023-08-21T06:35:00.755Z,83.16
2023-08-21T06:36:00.780Z,83.05
2023-08-21T06:37:00.779Z,84.29
2023-08-21T06:38:00.802Z,83.49
2023-08-21T06:39:00.805Z,82.59
2023-08-21T06:40:00.820Z,83.11
2023-08-21T06:41:02.658Z,80.89
2023-08-21T06:42:00.811Z,87.09
2023-08-21T06:43:00.806Z,81.77
2023-08-21T06:44:00.797Z,82.49
2023-08-21T06:45:00.794Z,83.81
2023-08-21T06:46:00.775Z,83.73
2023-08-21T06:47:00.814Z,84.70
2023-08-21T06:48:00.867Z,79.75
2023-08-21T06:49:00.760Z,79.10
2023-08-21T06:50:00.753Z,84.07
2023-08-21T06:51:00.757Z,81.19
2023-08-21T06:52:00.733Z,85.95
2023-08-21T06:53:00.739Z,79.57
2023-08-21T06:54:00.724Z,80.59
2023-08-21T06:55:00.738Z,79.12
2023-08-21T06:56:00.713Z,82.54
2023-08-21T06:57:00.715Z,79.22
2023-08-21T06:58:00.717Z,81.13
2023-08-21T06:59:00.697Z,79.30
2023-08-21T07:00:00.697Z,80.94
2023-08-21T07:01:00.731Z,80.87
2023-08-21T07:02:00.690Z,83.10
2023-08-21T07:03:00.741Z,82.76
2023-08-21T07:04:00.678Z,77.83
2023-08-21T07:05:00.668Z,82.34
2023-08-21T07:06:00.692Z,79.64
2023-08-21T07:07:00.659Z,79.67
2023-08-21T07:08:00.713Z,80.07
2023-08-21T07:09:00.650Z,81.34
2023-08-21T07:10:00.659Z,81.04
2023-08-21T07:11:00.635Z,79.81
2023-08-21T07:12:00.638Z,79.21
2023-08-21T07:13:00.619Z,78.35
2023-08-21T07:14:00.619Z,77.89
2023-08-21T07:15:00.650Z,79.67
2023-08-21T07:16:00.645Z,77.65
2023-08-21T07:17:00.592Z,81.56
2023-08-21T07:18:00.631Z,77.96
2023-08-21T07:19:00.584Z,79.19
2023-08-21T07:20:00.598Z,77.60
2023-08-21T07:21:00.569Z,79.09
2023-08-21T07:22:00.587Z,76.88
2023-08-21T07:23:00.552Z,77.42
2023-08-21T07:24:00.549Z,76.50
2023-08-21T07:25:00.564Z,77.31
2023-08-21T07:26:00.543Z,77.47
2023-08-21T07:27:00.542Z,79.44
2023-08-21T07:28:00.536Z,77.00
2023-08-21T07:29:00.674Z,78.99
2023-08-21T07:30:00.619Z,79.29
2023-08-21T07:31:00.676Z,75.05
2023-08-21T07:32:00.689Z,78.50
2023-08-21T07:33:00.764Z,76.03
2023-08-21T07:34:00.804Z,77.37
2023-08-21T07:35:00.836Z,76.25
2023-08-21T07:36:00.882Z,76.74
2023-08-21T07:37:00.949Z,74.81
2023-08-21T07:38:01.004Z,77.49
2023-08-21T07:39:01.063Z,77.95
2023-08-21T07:40:01.123Z,75.81
2023-08-21T07:41:01.191Z,74.25
2023-08-21T07:42:01.250Z,74.74
2023-08-21T07:43:01.300Z,72.69
2023-08-21T07:44:01.376Z,75.95
2023-08-21T07:45:01.418Z,74.73
2023-08-21T07:46:01.500Z,74.92
2023-08-21T07:47:01.543Z,73.30
2023-08-21T07:48:14.379Z,70.48
2023-08-21T07:49:02.608Z,70.90
2023-08-21T07:50:01.581Z,71.64
2023-08-21T07:51:01.584Z,72.96
2023-08-21T07:52:01.569Z,73.61
2023-08-21T07:53:01.568Z,77.30
2023-08-21T07:54:01.568Z,72.92
2023-08-21T07:55:01.566Z,73.77
2023-08-21T07:56:01.541Z,74.09
2023-08-21T07:57:01.581Z,73.77
2023-08-21T07:58:01.649Z,73.79
2023-08-21T07:59:01.691Z,74.41
2023-08-21T08:00:01.744Z,74.30
2023-08-21T08:01:01.811Z,72.15
2023-08-21T08:02:01.939Z,73.93
2023-08-21T08:03:02.007Z,74.25
2023-08-21T08:04:02.017Z,72.49
2023-08-21T08:05:02.009Z,72.42
2023-08-21T08:06:02.043Z,73.23
2023-08-21T08:07:02.108Z,71.99
2023-08-21T08:08:02.157Z,75.98
2023-08-21T08:09:02.233Z,70.87
2023-08-21T08:10:02.235Z,72.93
2023-08-21T08:11:02.312Z,73.73
2023-08-21T08:12:02.325Z,75.96
2023-08-21T08:13:02.385Z,74.18
2023-08-21T08:14:02.450Z,74.15
2023-08-21T08:15:02.510Z,76.81
2023-08-21T08:16:02.607Z,75.89
2023-08-21T08:17:02.620Z,74.83
2023-08-21T08:18:02.702Z,73.16
2023-08-21T08:19:02.702Z,73.80
2023-08-21T08:20:02.777Z,73.07
2023-08-21T08:21:02.823Z,72.52
2023-08-21T08:22:02.880Z,73.19
2023-08-21T08:23:02.919Z,74.31
2023-08-21T08:24:02.968Z,71.09
2023-08-21T08:25:03.040Z,71.87
2023-08-21T08:26:03.069Z,73.02
2023-08-21T08:27:03.137Z,71.96
2023-08-21T08:28:03.170Z,71.71
2023-08-21T08:29:03.230Z,73.92
2023-08-21T08:30:03.285Z,71.50
2023-08-21T08:31:03.323Z,71.93
2023-08-21T08:32:03.466Z,72.37
2023-08-21T08:33:03.473Z,72.79
2023-08-21T08:34:03.473Z,71.78
2023-08-21T08:35:03.501Z,74.36
2023-08-21T08:36:03.546Z,69.58
2023-08-21T08:37:03.587Z,71.01
2023-08-21T08:38:03.635Z,72.65
2023-08-21T08:39:03.689Z,75.01
2023-08-21T08:40:03.720Z,70.06
2023-08-21T08:41:03.770Z,67.15
2023-08-21T08:42:03.801Z,71.75
2023-08-21T08:43:03.841Z,68.69
2023-08-21T08:44:03.885Z,69.66
2023-08-21T08:45:03.926Z,70.04
2023-08-21T08:46:04.019Z,69.60
2023-08-21T08:47:04.015Z,68.06
2023-08-21T08:48:04.118Z,70.22
2023-08-21T08:49:04.102Z,67.07
2023-08-21T08:50:04.142Z,67.51
2023-08-21T08:51:04.172Z,65.98
2023-08-21T08:52:04.206Z,70.14
2023-08-21T08:53:15.356Z,66.62
2023-08-21T08:54:05.237Z,67.00
2023-08-21T08:55:04.249Z,67.04
2023-08-21T08:56:04.230Z,68.25
2023-08-21T08:57:04.222Z,66.76
2023-08-21T08:58:04.219Z,66.82
2023-08-21T08:59:04.215Z,66.33
2023-08-21T09:00:04.219Z,65.73
2023-08-21T09:01:04.202Z,67.47
2023-08-21T09:02:04.208Z,68.70
2023-08-21T09:03:04.232Z,66.63
2023-08-21T09:04:04.332Z,65.68
2023-08-21T09:05:04.177Z,66.28
2023-08-21T09:06:04.174Z,65.07
2023-08-21T09:07:04.171Z,62.90
2023-08-21T09:08:04.207Z,67.92
2023-08-21T09:09:04.243Z,66.51
2023-08-21T09:10:04.292Z,64.97
2023-08-21T09:11:04.328Z,68.56
2023-08-21T09:12:04.376Z,66.86
2023-08-21T09:13:04.436Z,65.02
2023-08-21T09:14:04.450Z,67.03
2023-08-21T09:15:04.521Z,70.19
2023-08-21T09:16:04.505Z,68.04
2023-08-21T09:17:04.522Z,67.27
2023-08-21T09:18:04.593Z,67.00
2023-08-21T09:19:04.579Z,68.90
2023-08-21T09:20:04.606Z,69.27
2023-08-21T09:21:04.647Z,67.02
2023-08-21T09:22:04.672Z,70.39
2023-08-21T09:23:04.699Z,66.36
2023-08-21T09:24:04.733Z,71.46
2023-08-21T09:25:04.757Z,70.43
2023-08-21T09:26:04.794Z,68.91
2023-08-21T09:27:04.820Z,69.55
2023-08-21T09:28:04.849Z,71.95
2023-08-21T09:29:04.893Z,72.31
2023-08-21T09:30:04.911Z,73.03
2023-08-21T09:31:04.976Z,73.13
2023-08-21T09:32:04.967Z,72.96
2023-08-21T09:33:05.012Z,71.10
2023-08-21T09:34:05.038Z,71.27
2023-08-21T09:35:05.076Z,73.00
2023-08-21T09:36:05.072Z,70.48
2023-08-21T09:37:05.093Z,70.05
2023-08-21T09:38:05.106Z,70.82
2023-08-21T09:39:05.135Z,72.61
2023-08-21T09:40:05.144Z,71.58
2023-08-21T09:41:05.170Z,72.06
2023-08-21T09:42:05.188Z,71.12
2023-08-21T09:43:05.201Z,73.97
2023-08-21T09:44:05.214Z,73.85
2023-08-21T09:45:05.224Z,72.25
2023-08-21T09:46:05.239Z,73.18
2023-08-21T09:47:05.253Z,70.57
2023-08-21T09:48:05.280Z,68.45
2023-08-21T09:49:05.275Z,72.51
2023-08-21T09:50:05.282Z,68.42
2023-08-21T09:51:05.286Z,70.13
2023-08-21T09:52:05.302Z,71.30
2023-08-21T09:53:05.310Z,71.06
2023-08-21T09:54:05.333Z,69.71
2023-08-21T09:55:05.297Z,69.71
2023-08-21T09:56:05.303Z,66.36
2023-08-21T09:57:05.293Z,70.12
2023-08-21T09:58:05.300Z,68.26
2023-08-21T09:59:05.339Z,67.40
2023-08-21T10:00:05.301Z,70.46
2023-08-21T10:01:05.343Z,67.75
2023-08-21T10:02:05.298Z,69.30
2023-08-21T10:03:05.345Z,66.78
2023-08-21T10:04:05.340Z,66.27
2023-08-21T10:05:05.285Z,64.88
2023-08-21T10:06:05.273Z,65.76
2023-08-21T10:07:05.272Z,65.68
2023-08-21T10:08:05.267Z,64.66
2023-08-21T10:09:05.270Z,67.20
2023-08-21T10:10:05.273Z,64.49
2023-08-21T10:11:05.334Z,67.25
2023-08-21T10:12:05.264Z,66.25
2023-08-21T10:13:06.250Z,66.95
2023-08-21T10:14:05.282Z,67.28
2023-08-21T10:15:05.307Z,66.44
2023-08-21T10:16:05.461Z,67.19
2023-08-21T10:17:05.352Z,70.14
2023-08-21T10:18:05.357Z,64.99
2023-08-21T10:19:05.343Z,69.87
2023-08-21T10:20:05.375Z,68.10
2023-08-21T10:21:05.396Z,69.45
2023-08-21T10:22:05.436Z,67.45
2023-08-21T10:23:05.419Z,69.35
2023-08-21T10:24:05.462Z,69.60
2023-08-21T10:25:05.487Z,69.75
2023-08-21T10:26:05.553Z,71.46
2023-08-21T10:27:05.544Z,66.02
2023-08-21T10:28:05.563Z,70.14
2023-08-21T10:29:05.602Z,70.55
2023-08-21T10:30:05.636Z,68.57
2023-08-21T10:31:07.057Z,67.57
2023-08-21T10:32:05.743Z,70.29
2023-08-21T10:33:05.911Z,70.23
2023-08-21T10:34:05.866Z,71.22
2023-08-21T10:35:05.880Z,69.07
2023-08-21T10:36:05.941Z,70.99
2023-08-21T10:37:05.987Z,70.02
2023-08-21T10:38:06.026Z,71.45
2023-08-21T10:39:06.076Z,67.91
2023-08-21T10:40:06.129Z,74.47
2023-08-21T10:41:06.168Z,71.94
2023-08-21T10:42:06.213Z,71.72
2023-08-21T10:43:06.249Z,70.21
2023-08-21T10:44:06.290Z,72.78
2023-08-21T10:45:06.333Z,73.03
2023-08-21T10:46:06.413Z,74.78
2023-08-21T10:47:06.447Z,74.22
2023-08-21T10:48:06.548Z,73.03
2023-08-21T10:49:06.553Z,73.18
2023-08-21T10:50:06.604Z,73.24
2023-08-21T10:51:06.660Z,71.64
2023-08-21T10:52:06.712Z,75.65
2023-08-21T10:53:06.750Z,73.49
2023-08-21T10:54:06.828Z,74.10
2023-08-21T10:55:06.871Z,75.85
2023-08-21T10:56:06.940Z,74.15
2023-08-21T10:57:07.013Z,75.94
2023-08-21T10:58:07.057Z,75.13
2023-08-21T10:59:07.127Z,74.47
2023-08-21T11:00:07.182Z,75.70
2023-08-21T11:01:07.244Z,75.03
2023-08-21T11:02:07.798Z,77.15
2023-08-21T11:03:07.411Z,76.21
2023-08-21T11:04:07.412Z,75.46
2023-08-21T11:05:07.528Z,76.54
2023-08-21T11:06:07.608Z,77.75
2023-08-21T11:07:07.604Z,76.64
2023-08-21T11:08:07.658Z,72.91
2023-08-21T11:09:07.731Z,74.43
2023-08-21T11:10:09.586Z,74.38
2023-08-21T11:11:07.783Z,74.60
2023-08-21T11:12:07.773Z,74.93
2023-08-21T11:13:07.785Z,74.85
2023-08-21T11:14:07.767Z,77.16
2023-08-21T11:15:07.761Z,75.30
2023-08-21T11:16:07.757Z,76.69
2023-08-21T11:17:07.760Z,77.29
2023-08-21T11:18:07.762Z,75.94
2023-08-21T11:19:07.744Z,74.65
2023-08-21T11:20:07.726Z,72.66
2023-08-21T11:21:07.708Z,74.55
2023-08-21T11:22:07.710Z,75.86
2023-08-21T11:23:07.744Z,77.30
2023-08-21T11:24:07.689Z,75.55
2023-08-21T11:25:07.687Z,74.24
2023-08-21T11:26:19.256Z,74.85
2023-08-21T11:27:08.678Z,75.38
2023-08-21T11:28:07.686Z,75.53
2023-08-21T11:29:07.655Z,75.49
2023-08-21T11:30:07.658Z,75.86
2023-08-21T11:31:07.644Z,76.58
2023-08-21T11:32:07.639Z,78.86
2023-08-21T11:33:07.694Z,78.05
2023-08-21T11:34:18.498Z,77.04
2023-08-21T11:35:08.623Z,77.27
2023-08-21T11:36:07.624Z,77.67
2023-08-21T11:37:07.613Z,77.17
2023-08-21T11:38:10.213Z,75.64
2023-08-21T11:39:07.607Z,81.17
2023-08-21T11:40:07.602Z,77.95
2023-08-21T11:41:07.605Z,77.17
2023-08-21T11:42:07.577Z,81.96
2023-08-21T11:43:07.581Z,77.25
2023-08-21T11:44:07.582Z,73.57
2023-08-21T11:45:09.773Z,76.74
2023-08-21T11:46:07.588Z,77.03
2023-08-21T11:47:07.543Z,77.25
2023-08-21T11:48:07.582Z,77.66
2023-08-21T11:49:07.545Z,75.76
2023-08-21T11:50:07.625Z,78.71
2023-08-21T11:51:07.538Z,78.49
2023-08-21T11:52:07.526Z,74.00
2023-08-21T11:53:07.524Z,75.14
2023-08-21T11:54:07.507Z,74.83
2023-08-21T11:55:07.493Z,75.26
2023-08-21T11:56:07.489Z,75.51
2023-08-21T11:57:07.502Z,75.96
2023-08-21T11:58:07.480Z,75.30
2023-08-21T11:59:07.490Z,75.22
2023-08-21T12:00:07.472Z,74.59
2023-08-21T12:01:07.471Z,77.65
2023-08-21T12:02:07.453Z,74.50
2023-08-21T12:03:07.518Z,76.18
2023-08-21T12:04:07.459Z,74.72
2023-08-21T12:05:07.428Z,73.28
2023-08-21T12:06:07.438Z,74.71
2023-08-21T12:07:07.416Z,74.47
2023-08-21T12:08:07.423Z,77.57
2023-08-21T12:09:07.432Z,77.95
2023-08-21T12:10:07.423Z,77.02
2023-08-21T12:11:07.388Z,75.88
2023-08-21T12:12:07.425Z,74.53
2023-08-21T12:13:07.418Z,76.85
2023-08-21T12:14:07.380Z,74.21
2023-08-21T12:15:07.387Z,74.52
2023-08-21T12:16:07.382Z,74.52
2023-08-21T12:17:07.368Z,77.04
2023-08-21T12:18:07.402Z,74.88
2023-08-21T12:19:07.355Z,78.50
2023-08-21T12:20:07.347Z,75.67
2023-08-21T12:21:07.343Z,74.31
2023-08-21T12:22:07.339Z,77.10
2023-08-21T12:23:07.324Z,80.11
2023-08-21T12:24:07.319Z,77.70
2023-08-21T12:25:07.397Z,78.82
2023-08-21T12:26:07.305Z,79.52
2023-08-21T12:27:07.302Z,81.08
2023-08-21T12:29:07.288Z,78.10
2023-08-21T12:30:07.320Z,76.84
2023-08-21T12:31:07.328Z,77.45
2023-08-21T12:32:07.273Z,81.98
2023-08-21T12:33:20.974Z,79.60
2023-08-21T12:34:08.286Z,79.91
2023-08-21T12:35:07.248Z,80.33
2023-08-21T12:36:07.243Z,80.89
2023-08-21T12:37:07.242Z,80.41
2023-08-21T12:38:07.234Z,81.11
2023-08-21T12:39:07.237Z,82.44
2023-08-21T12:40:07.226Z,80.30
2023-08-21T12:41:07.212Z,82.43
2023-08-21T12:42:07.195Z,80.14
2023-08-21T12:43:07.201Z,81.28
2023-08-21T12:44:07.200Z,81.00
2023-08-21T12:45:07.185Z,77.91
2023-08-21T12:46:08.517Z,78.19
2023-08-21T12:47:07.219Z,77.91
2023-08-21T12:48:07.377Z,81.49
2023-08-21T12:49:07.331Z,81.20
2023-08-21T12:50:07.338Z,78.37
2023-08-21T12:51:07.363Z,80.78
2023-08-21T12:52:08.650Z,81.16
2023-08-21T12:53:07.393Z,85.64